This demonstration page uses our WeatherBlox Daily Observations layout. Learn more.

38.88101, -77.10428

Hourly Observations for March 11, 2017

Temp ( °F °C ) Dew Point ( °F °C ) Humidity (%) Winds ( mph kmh ) Pressure ( in mb ) Visibility ( mi km ) Precip ( " mm )
12:52 am 00:52 Partly Cloudy 31 -0.6 11 -11.7 43 43 NNW 14 22 30.18 1022 10 16.09344 0 0
1:52 am 01:52 Partly Cloudy 29 -1.7 13 -10.6 51 51 NNW 24 39 30.18 1022 10 16.09344 0 0
2:52 am 02:52 Mostly Cloudy 29 -1.7 11 -11.7 47 47 NNW 14 22 30.18 1022 10 16.09344 0 0
3:52 am 03:52 Mostly Cloudy 28 -2.2 10 -12.2 47 47 NW 13 20 30.21 1023 10 16.09344 0 0
4:52 am 04:52 Cloudy 28 -2.2 9 -12.8 44 44 NNW 8 13 30.24 1024 10 16.09344 0 0
5:52 am 05:52 Partly Cloudy 27 -2.8 9 -12.8 46 46 NNW 13 20 30.27 1025 10 16.09344 0 0
6:52 am 06:52 Partly Cloudy 26 -3.3 9 -12.8 48 48 NNW 12 19 30.27 1025 10 16.09344 0 0
7:52 am 07:52 Mostly Cloudy 28 -2.2 9 -12.8 44 44 NNW 12 19 30.3 1026 10 16.09344 0 0
8:52 am 08:52 Mostly Cloudy 31 -0.6 11 -11.7 43 43 NW 13 20 30.3 1026 10 16.09344 0 0
9:52 am 09:52 Mostly Cloudy 32 0 11 -11.7 41 41 NW 14 22 30.3 1026 10 16.09344 0 0
10:52 am 10:52 Partly Cloudy 34 1.1 9 -12.8 35 35 WNW 20 31 30.3 1026 10 16.09344 0 0
11:52 am 11:52 Partly Cloudy 37 2.8 7 -13.9 28 28 NW 15 24 30.27 1025 10 16.09344 0 0
12:52 pm 12:52 Mostly Sunny 37 2.8 6 -14.4 27 27 W 15 24 30.27 1025 10 16.09344 0 0
1:52 pm 13:52 Partly Cloudy 38 3.3 4 -15.6 24 24 NW 20 31 30.24 1024 10 16.09344 0 0
2:52 pm 14:52 Mostly Sunny 39 3.9 3 -16.1 22 22 WNW 9 15 30.24 1024 10 16.09344 0 0
3:52 pm 15:52 Mostly Sunny 39 3.9 3 -16.1 22 22 W 20 31 30.24 1024 10 16.09344 0 0
4:52 pm 16:52 Partly Cloudy 38 3.3 4 -15.6 24 24 NW 14 22 30.24 1024 10 16.09344 0 0
5:52 pm 17:52 Partly Cloudy 36 2.2 3 -16.1 25 25 NW 15 24 30.27 1025 10 16.09344 0 0
6:52 pm 18:52 Partly Cloudy 34 1.1 5 -15 29 29 NW 16 26 30.3 1026 10 16.09344 0 0
7:52 pm 19:52 Mostly Cloudy 33 0.6 5 -15 30 30 NW 10 17 30.3 1026 10 16.09344 0 0
8:52 pm 20:52 Mostly Cloudy 32 0 6 -14.4 33 33 NNW 13 20 30.33 1027 10 16.09344 0 0
9:52 pm 21:52 Mostly Cloudy 31 -0.6 7 -13.9 36 36 NNW 13 20 30.33 1027 10 16.09344 0 0
10:52 pm 22:52 Mostly Cloudy 30 -1.1 8 -13.3 39 39 NNW 17 28 30.36 1028 10 16.09344 0 0
11:52 pm 23:52 Cloudy 30 -1.1 8 -13.3 39 39 NNW 17 28 30.36 1028 10 16.09344 0 0

Powered by AerisWeather